Time;durP1;ratioP1;P1;durP2;ratioP2;P2;SDS_P1;SDS_P2;PMS_P1;PMS_P2;Temp;Humidity;BMP_temperature;BMP_pressure;BME280_temperature;BME280_humidity;BME280_pressure;Samples;Min_cycle;Max_cycle;Signal;HPM_P1;HPM_P2
2022/05/15 00:01:07;;;;;;;6.82;2.13;;;;;;;;;;4996610;28;20096;-70
2022/05/15 00:03:32;;;;;;;6.93;2.05;;;;;;;;;;4996062;28;20026;-70
2022/05/15 00:06:03;;;;;;;13.63;2.22;;;;;;;;;;4995800;28;20379;-70
2022/05/15 00:08:31;;;;;;;6.82;2.00;;;;;;;;;;4996079;28;20124;-72
2022/05/15 00:10:58;;;;;;;9.35;2.13;;;;;;;;;;4996021;28;20034;-69
2022/05/15 00:13:25;;;;;;;11.40;2.40;;;;;;;;;;4995964;28;20033;-70
2022/05/15 00:15:51;;;;;;;7.55;2.10;;;;;;;;;;4995972;28;20061;-70
2022/05/15 00:18:20;;;;;;;8.43;2.05;;;;;;;;;;4995364;28;20026;-70
2022/05/15 00:20:46;;;;;;;8.82;1.70;;;;;;;;;;4995302;28;20030;-70
2022/05/15 00:23:11;;;;;;;5.50;1.95;;;;;;;;;;4995293;28;20093;-65
2022/05/15 00:25:38;;;;;;;6.35;2.00;;;;;;;;;;4995127;28;20030;-70
2022/05/15 00:28:04;;;;;;;10.52;1.95;;;;;;;;;;4995606;28;20026;-67
2022/05/15 00:30:31;;;;;;;7.20;1.67;;;;;;;;;;4995566;28;20454;-66
2022/05/15 00:32:57;;;;;;;6.70;2.00;;;;;;;;;;4995568;28;20036;-63
2022/05/15 00:35:24;;;;;;;7.22;2.30;;;;;;;;;;4995670;28;20433;-65
2022/05/15 00:37:49;;;;;;;6.68;2.03;;;;;;;;;;4995570;28;20094;-69
2022/05/15 00:40:17;;;;;;;9.27;2.20;;;;;;;;;;4995278;28;20022;-70
2022/05/15 00:42:43;;;;;;;6.38;1.75;;;;;;;;;;4994337;28;20495;-69
2022/05/15 00:45:09;;;;;;;7.07;1.70;;;;;;;;;;4995418;28;20069;-69
2022/05/15 00:47:35;;;;;;;6.90;2.00;;;;;;;;;;4995035;28;20096;-70
2022/05/15 00:50:11;;;;;;;11.35;2.58;;;;;;;;;;4994759;28;20455;-70
2022/05/15 00:52:40;;;;;;;11.02;2.45;;;;;;;;;;4994705;28;20034;-67
2022/05/15 00:55:20;;;;;;;5.90;2.10;;;;;;;;;;4994174;28;20053;-63
2022/05/15 00:58:03;;;;;;;5.85;1.98;;;;;;;;;;4995131;28;20026;-63
2022/05/15 01:00:31;;;;;;;8.73;2.22;;;;;;;;;;4995206;28;20088;-63
2022/05/15 01:03:10;;;;;;;8.50;2.10;;;;;;;;;;4995092;28;20033;-70
2022/05/15 01:05:41;;;;;;;7.30;1.60;;;;;;;;;;4995073;28;20030;-63
2022/05/15 01:08:07;;;;;;;6.57;1.60;;;;;;;;;;4994918;28;20042;-62
2022/05/15 01:10:35;;;;;;;10.13;2.35;;;;;;;;;;4994784;28;20027;-67
2022/05/15 01:13:01;;;;;;;6.95;2.08;;;;;;;;;;4994996;28;20023;-67
2022/05/15 01:15:28;;;;;;;10.23;2.05;;;;;;;;;;4994416;28;20045;-66
2022/05/15 01:17:54;;;;;;;11.75;2.03;;;;;;;;;;4994342;28;20592;-67
2022/05/15 01:20:23;;;;;;;9.00;2.17;;;;;;;;;;4994085;28;20030;-69
2022/05/15 01:22:49;;;;;;;9.10;2.28;;;;;;;;;;4990766;28;20387;-65
2022/05/15 01:25:18;;;;;;;10.95;2.30;;;;;;;;;;4994406;28;20030;-67
2022/05/15 01:27:52;;;;;;;8.90;1.77;;;;;;;;;;4994636;28;20027;-70
2022/05/15 01:30:17;;;;;;;5.47;1.92;;;;;;;;;;4994254;28;20637;-65
2022/05/15 01:32:43;;;;;;;7.30;2.10;;;;;;;;;;4993928;28;20137;-63
2022/05/15 01:35:08;;;;;;;4.80;1.70;;;;;;;;;;4993853;28;20108;-71
2022/05/15 01:37:35;;;;;;;4.45;1.70;;;;;;;;;;4993829;28;20034;-68
2022/05/15 01:40:03;;;;;;;6.40;1.83;;;;;;;;;;4993821;28;20082;-69
2022/05/15 01:42:29;;;;;;;9.80;2.20;;;;;;;;;;4994218;28;20034;-70
2022/05/15 01:44:55;;;;;;;4.03;1.90;;;;;;;;;;4994055;28;20490;-65
2022/05/15 01:47:20;;;;;;;5.72;2.00;;;;;;;;;;4994327;28;20105;-65
2022/05/15 01:49:46;;;;;;;9.35;2.28;;;;;;;;;;4994216;28;20035;-64
2022/05/15 01:52:12;;;;;;;9.18;3.58;;;;;;;;;;4993851;28;20073;-62
2022/05/15 01:54:38;;;;;;;5.95;2.22;;;;;;;;;;4994144;28;20033;-63
2022/05/15 01:57:05;;;;;;;10.82;2.42;;;;;;;;;;4994229;28;20022;-65
2022/05/15 01:59:31;;;;;;;6.47;1.92;;;;;;;;;;4993892;28;20026;-70
2022/05/15 02:01:56;;;;;;;7.07;2.10;;;;;;;;;;4993357;28;20581;-62
2022/05/15 02:04:22;;;;;;;8.00;2.72;;;;;;;;;;4993084;28;20055;-70
2022/05/15 02:06:48;;;;;;;8.07;2.08;;;;;;;;;;4991973;28;20132;-63
2022/05/15 02:09:14;;;;;;;7.22;1.92;;;;;;;;;;4993442;28;20031;-66
2022/05/15 02:11:40;;;;;;;9.35;2.38;;;;;;;;;;4993849;28;20454;-63
2022/05/15 02:14:07;;;;;;;8.98;2.30;;;;;;;;;;4993683;28;20101;-69
2022/05/15 02:16:33;;;;;;;8.40;2.25;;;;;;;;;;4993760;28;20035;-70
2022/05/15 02:18:59;;;;;;;7.80;2.30;;;;;;;;;;4993604;28;20457;-66
2022/05/15 02:21:25;;;;;;;7.07;2.00;;;;;;;;;;4993406;28;20023;-67
2022/05/15 02:23:51;;;;;;;9.25;2.20;;;;;;;;;;4993522;28;20022;-64
2022/05/15 02:26:17;;;;;;;9.13;1.92;;;;;;;;;;4993191;28;20499;-68
2022/05/15 02:28:43;;;;;;;8.40;2.25;;;;;;;;;;4993475;28;20487;-68
2022/05/15 02:31:09;;;;;;;11.90;2.00;;;;;;;;;;4993250;28;20028;-65
2022/05/15 02:33:36;;;;;;;7.68;1.90;;;;;;;;;;4992198;28;20034;-68
2022/05/15 02:36:03;;;;;;;4.47;1.58;;;;;;;;;;4992441;28;20519;-71
2022/05/15 02:38:30;;;;;;;8.35;2.42;;;;;;;;;;4991428;28;20108;-69
2022/05/15 02:40:56;;;;;;;5.72;1.88;;;;;;;;;;4992990;28;20084;-67
2022/05/15 02:43:21;;;;;;;7.20;2.05;;;;;;;;;;4993176;28;20112;-63
2022/05/15 02:45:47;;;;;;;4.50;2.28;;;;;;;;;;4992954;28;20177;-70
2022/05/15 02:51:03;;;;;;;5.43;2.30;;;;;;;;;;4993315;28;20121;-62
2022/05/15 02:53:30;;;;;;;7.78;2.10;;;;;;;;;;4993089;28;20480;-70
2022/05/15 02:55:57;;;;;;;8.23;2.40;;;;;;;;;;4992980;28;20038;-67
2022/05/15 02:58:22;;;;;;;6.93;2.25;;;;;;;;;;4992990;28;20026;-70
2022/05/15 03:00:48;;;;;;;8.65;2.50;;;;;;;;;;4992798;28;20022;-69
2022/05/15 03:03:14;;;;;;;6.32;2.05;;;;;;;;;;4992451;28;20356;-71
2022/05/15 03:05:40;;;;;;;8.98;2.20;;;;;;;;;;4991851;28;20102;-65
2022/05/15 03:08:06;;;;;;;13.90;2.35;;;;;;;;;;4992019;28;20050;-71
2022/05/15 03:10:32;;;;;;;7.70;2.33;;;;;;;;;;4992669;28;20416;-71
2022/05/15 03:12:58;;;;;;;5.03;2.03;;;;;;;;;;4992926;28;20434;-71
2022/05/15 03:15:23;;;;;;;6.20;1.80;;;;;;;;;;4992903;28;20118;-71
2022/05/15 03:17:49;;;;;;;8.43;2.03;;;;;;;;;;4992929;28;20125;-71
2022/05/15 03:20:16;;;;;;;10.10;2.65;;;;;;;;;;4995988;28;20030;-71
2022/05/15 03:22:42;;;;;;;8.55;2.30;;;;;;;;;;4996945;28;20053;-70
2022/05/15 03:25:08;;;;;;;5.22;1.70;;;;;;;;;;4996747;28;20404;-70
2022/05/15 03:27:34;;;;;;;7.32;1.98;;;;;;;;;;4996860;28;20073;-69
2022/05/15 03:30:00;;;;;;;6.28;1.83;;;;;;;;;;4996744;28;20030;-70
2022/05/15 03:32:25;;;;;;;5.13;2.00;;;;;;;;;;4996053;28;20101;-67
2022/05/15 03:34:51;;;;;;;9.07;2.20;;;;;;;;;;4995891;28;20030;-70
2022/05/15 03:37:16;;;;;;;8.90;2.30;;;;;;;;;;4995853;28;20110;-65
2022/05/15 03:39:42;;;;;;;8.18;2.20;;;;;;;;;;4996139;28;20069;-71
2022/05/15 03:42:08;;;;;;;6.85;2.42;;;;;;;;;;4996573;28;20081;-71
2022/05/15 03:44:33;;;;;;;5.75;1.98;;;;;;;;;;4996367;28;20026;-70
2022/05/15 03:46:59;;;;;;;7.53;2.10;;;;;;;;;;4996502;28;20026;-73
2022/05/15 03:49:25;;;;;;;6.07;1.90;;;;;;;;;;4996303;28;20022;-68
2022/05/15 03:51:50;;;;;;;8.07;2.10;;;;;;;;;;4996389;28;20026;-63
2022/05/15 03:54:16;;;;;;;5.47;2.50;;;;;;;;;;4996322;28;20027;-67
2022/05/15 03:56:50;;;;;;;7.88;2.55;;;;;;;;;;4996312;28;20027;-69
2022/05/15 03:59:31;;;;;;;5.78;2.10;;;;;;;;;;4996369;28;20027;-68
2022/05/15 04:01:58;;;;;;;8.02;2.42;;;;;;;;;;4996191;28;20574;-67
2022/05/15 04:04:23;;;;;;;9.50;2.50;;;;;;;;;;4995138;28;20045;-69
2022/05/15 04:06:49;;;;;;;9.50;2.28;;;;;;;;;;4995179;28;20042;-69
2022/05/15 04:09:15;;;;;;;8.60;2.30;;;;;;;;;;4995674;28;20034;-63
2022/05/15 04:11:41;;;;;;;6.50;2.47;;;;;;;;;;4995603;28;20522;-70
2022/05/15 04:14:07;;;;;;;11.23;2.88;;;;;;;;;;4995928;28;20130;-65
2022/05/15 04:16:33;;;;;;;8.55;2.38;;;;;;;;;;4995912;28;20065;-66
2022/05/15 04:18:58;;;;;;;6.32;2.30;;;;;;;;;;4995482;28;20022;-68
2022/05/15 04:21:24;;;;;;;7.57;2.63;;;;;;;;;;4995936;28;20022;-65
2022/05/15 04:23:50;;;;;;;9.82;2.50;;;;;;;;;;4995850;28;20542;-62
2022/05/15 04:26:16;;;;;;;8.38;2.20;;;;;;;;;;4995659;28;20081;-71
2022/05/15 04:28:41;;;;;;;9.38;2.67;;;;;;;;;;4995742;28;20022;-71
2022/05/15 04:31:07;;;;;;;6.28;2.22;;;;;;;;;;4994615;28;20522;-67
2022/05/15 04:33:34;;;;;;;9.35;2.55;;;;;;;;;;4994743;28;20514;-63
2022/05/15 04:35:59;;;;;;;7.20;2.50;;;;;;;;;;4994978;28;20093;-63
2022/05/15 04:38:25;;;;;;;10.25;2.95;;;;;;;;;;4994750;28;20030;-67
2022/05/15 04:40:51;;;;;;;10.43;2.85;;;;;;;;;;4995515;28;20081;-65
2022/05/15 04:43:17;;;;;;;7.38;2.20;;;;;;;;;;4995579;28;20030;-64
2022/05/15 04:45:42;;;;;;;6.90;2.58;;;;;;;;;;4994887;28;20431;-70
2022/05/15 04:48:10;;;;;;;8.40;2.58;;;;;;;;;;4994493;28;20022;-68
2022/05/15 04:50:37;;;;;;;7.35;2.50;;;;;;;;;;4994627;28;20030;-70
2022/05/15 04:53:03;;;;;;;6.65;2.55;;;;;;;;;;4994613;28;20026;-70
2022/05/15 04:55:29;;;;;;;8.50;2.42;;;;;;;;;;4995094;28;20026;-71
2022/05/15 04:57:54;;;;;;;8.57;2.33;;;;;;;;;;4995104;28;20105;-71
2022/05/15 05:00:20;;;;;;;10.27;2.60;;;;;;;;;;4995037;28;20030;-70
2022/05/15 05:02:46;;;;;;;5.65;2.08;;;;;;;;;;4995064;28;20030;-70
2022/05/15 05:05:12;;;;;;;5.82;2.05;;;;;;;;;;4995007;28;20041;-70
2022/05/15 05:07:38;;;;;;;9.05;2.03;;;;;;;;;;4994702;28;20042;-69
2022/05/15 05:10:05;;;;;;;5.15;1.90;;;;;;;;;;4995199;28;20022;-71
2022/05/15 05:12:31;;;;;;;6.45;1.83;;;;;;;;;;4994810;28;20550;-69
2022/05/15 05:14:58;;;;;;;4.95;1.75;;;;;;;;;;4994797;28;20038;-70
2022/05/15 05:17:24;;;;;;;7.35;2.03;;;;;;;;;;4994332;28;20026;-68
2022/05/15 05:19:49;;;;;;;5.40;1.90;;;;;;;;;;4994195;28;20499;-66
2022/05/15 05:22:15;;;;;;;6.18;1.70;;;;;;;;;;4994007;28;20037;-70
2022/05/15 05:24:40;;;;;;;5.75;2.10;;;;;;;;;;4993893;28;20057;-62
2022/05/15 05:27:06;;;;;;;7.32;2.13;;;;;;;;;;4994350;28;20631;-62
2022/05/15 05:29:32;;;;;;;5.85;1.80;;;;;;;;;;4994505;28;20101;-63
2022/05/15 05:31:57;;;;;;;5.55;1.63;;;;;;;;;;4994258;28;20357;-65
2022/05/15 05:34:23;;;;;;;4.75;1.60;;;;;;;;;;4994485;28;20065;-62
2022/05/15 05:36:48;;;;;;;4.30;1.75;;;;;;;;;;4993140;28;20383;-62
2022/05/15 05:39:14;;;;;;;4.07;1.85;;;;;;;;;;4994430;28;20081;-67
2022/05/15 05:41:39;;;;;;;5.28;2.33;;;;;;;;;;4993577;28;20557;-62
2022/05/15 05:44:05;;;;;;;5.22;1.63;;;;;;;;;;4994400;28;20070;-68
2022/05/15 05:46:31;;;;;;;6.35;1.70;;;;;;;;;;4993461;28;20129;-65
2022/05/15 05:48:57;;;;;;;5.70;1.80;;;;;;;;;;4993464;28;20026;-64
2022/05/15 05:51:23;;;;;;;6.20;1.80;;;;;;;;;;4993631;28;20162;-64
2022/05/15 05:53:48;;;;;;;7.15;2.33;;;;;;;;;;4993584;28;20525;-68
2022/05/15 05:56:14;;;;;;;5.65;1.77;;;;;;;;;;4993763;28;20109;-69
2022/05/15 05:58:40;;;;;;;5.72;1.90;;;;;;;;;;4993804;28;20022;-65
2022/05/15 06:01:06;;;;;;;6.05;1.70;;;;;;;;;;4993987;28;20394;-62
2022/05/15 06:06:17;;;;;;;5.35;1.50;;;;;;;;;;4993453;28;20526;-68
2022/05/15 06:08:42;;;;;;;6.78;1.95;;;;;;;;;;4994003;28;20030;-68
2022/05/15 06:11:09;;;;;;;6.30;1.90;;;;;;;;;;4993853;28;20034;-62
2022/05/15 06:13:35;;;;;;;5.07;2.10;;;;;;;;;;4993544;28;20547;-65
2022/05/15 06:16:01;;;;;;;7.05;2.10;;;;;;;;;;4993683;28;20038;-64
2022/05/15 06:18:26;;;;;;;5.90;1.85;;;;;;;;;;4993301;28;20026;-66
2022/05/15 06:20:52;;;;;;;3.97;1.58;;;;;;;;;;4992772;28;20030;-70
2022/05/15 06:23:19;;;;;;;4.55;1.40;;;;;;;;;;4993353;28;20472;-68
2022/05/15 06:25:44;;;;;;;5.38;1.42;;;;;;;;;;4992902;28;20023;-70
2022/05/15 06:28:11;;;;;;;4.35;1.52;;;;;;;;;;4993185;28;20037;-62
2022/05/15 06:30:37;;;;;;;4.43;1.70;;;;;;;;;;4993581;28;20018;-64
2022/05/15 06:33:04;;;;;;;3.10;1.30;;;;;;;;;;4993466;28;20460;-64
2022/05/15 06:35:30;;;;;;;5.03;1.40;;;;;;;;;;4993453;28;20034;-62
2022/05/15 06:37:55;;;;;;;5.32;1.52;;;;;;;;;;4993258;28;20379;-69
2022/05/15 06:40:21;;;;;;;5.07;1.27;;;;;;;;;;4993282;28;20383;-67
2022/05/15 06:42:46;;;;;;;6.28;1.50;;;;;;;;;;4993172;28;20019;-67
2022/05/15 06:45:14;;;;;;;4.20;1.40;;;;;;;;;;4992959;28;20433;-67
2022/05/15 06:47:40;;;;;;;5.45;1.42;;;;;;;;;;4992144;28;20038;-70
2022/05/15 06:50:07;;;;;;;4.05;1.30;;;;;;;;;;4992546;28;20026;-63
2022/05/15 06:52:33;;;;;;;5.38;1.35;;;;;;;;;;4992070;28;20026;-63
2022/05/15 06:54:59;;;;;;;3.55;1.40;;;;;;;;;;4992435;28;20423;-63
2022/05/15 06:57:34;;;;;;;6.38;1.48;;;;;;;;;;4992056;28;20027;-67
2022/05/15 07:00:04;;;;;;;5.50;1.45;;;;;;;;;;4983617;28;20018;-66
2022/05/15 07:02:30;;;;;;;5.20;1.45;;;;;;;;;;4982774;28;20125;-72
2022/05/15 07:04:56;;;;;;;4.38;1.50;;;;;;;;;;4983087;28;20056;-71
2022/05/15 07:07:22;;;;;;;5.47;1.70;;;;;;;;;;4983703;28;20034;-71
2022/05/15 07:09:47;;;;;;;7.47;1.77;;;;;;;;;;4982017;28;20101;-66
2022/05/15 07:12:13;;;;;;;5.45;1.55;;;;;;;;;;4982876;28;20069;-71
2022/05/15 07:14:39;;;;;;;4.68;1.70;;;;;;;;;;4983494;28;20027;-71
2022/05/15 07:17:05;;;;;;;5.07;1.60;;;;;;;;;;4981807;28;20421;-69
2022/05/15 07:19:31;;;;;;;6.35;1.50;;;;;;;;;;4983399;28;20077;-69
2022/05/15 07:21:56;;;;;;;5.57;1.58;;;;;;;;;;4983155;28;20031;-71
2022/05/15 07:24:22;;;;;;;5.40;1.65;;;;;;;;;;4990106;28;20145;-71
2022/05/15 07:26:48;;;;;;;6.82;1.70;;;;;;;;;;4992224;28;20102;-65
2022/05/15 07:29:15;;;;;;;4.20;1.50;;;;;;;;;;4993059;28;20068;-69
2022/05/15 07:31:41;;;;;;;3.70;1.42;;;;;;;;;;4993128;28;20027;-70
2022/05/15 07:34:07;;;;;;;4.57;1.42;;;;;;;;;;4992831;28;20491;-67
2022/05/15 07:36:33;;;;;;;3.83;1.50;;;;;;;;;;4992947;28;20399;-71
2022/05/15 07:38:59;;;;;;;4.80;1.40;;;;;;;;;;4993104;28;20019;-70
2022/05/15 07:41:25;;;;;;;3.38;1.58;;;;;;;;;;4992864;28;20481;-69
2022/05/15 07:43:51;;;;;;;6.47;2.03;;;;;;;;;;4992922;28;20030;-69
2022/05/15 07:46:16;;;;;;;4.63;1.60;;;;;;;;;;4992796;28;20479;-66
2022/05/15 07:48:42;;;;;;;4.63;1.80;;;;;;;;;;4992916;28;20030;-70
2022/05/15 07:51:07;;;;;;;4.22;1.77;;;;;;;;;;4992955;28;20133;-70
2022/05/15 07:53:33;;;;;;;4.38;1.48;;;;;;;;;;4992734;28;20446;-63
2022/05/15 07:55:59;;;;;;;5.22;1.42;;;;;;;;;;4992605;28;20019;-69
2022/05/15 07:58:25;;;;;;;7.63;1.77;;;;;;;;;;4992747;28;20545;-70
2022/05/15 08:00:53;;;;;;;5.38;1.35;;;;;;;;;;4992757;28;20073;-68
2022/05/15 08:03:19;;;;;;;5.88;1.70;;;;;;;;;;4990713;28;20045;-70
2022/05/15 08:08:29;;;;;;;5.57;1.80;;;;;;;;;;4977142;28;20045;-68
2022/05/15 08:10:55;;;;;;;5.38;1.90;;;;;;;;;;4976612;28;20027;-65
2022/05/15 08:13:29;;;;;;;4.70;1.60;;;;;;;;;;4975560;28;20023;-68
2022/05/15 08:15:55;;;;;;;4.65;1.92;;;;;;;;;;4976909;28;20034;-66
2022/05/15 08:23:54;;;;;;;6.85;2.15;;;;;;;;;;4976556;28;20037;-70
2022/05/15 08:26:20;;;;;;;5.55;1.88;;;;;;;;;;4976330;28;20122;-70
2022/05/15 08:28:46;;;;;;;4.10;1.65;;;;;;;;;;4976577;28;20038;-63
2022/05/15 08:31:13;;;;;;;5.28;1.73;;;;;;;;;;4976507;28;20049;-71
2022/05/15 08:33:40;;;;;;;6.65;1.70;;;;;;;;;;4976455;28;20019;-69
2022/05/15 08:36:07;;;;;;;6.05;1.80;;;;;;;;;;4976263;28;20110;-66
2022/05/15 08:38:34;;;;;;;4.60;1.80;;;;;;;;;;4975077;28;20031;-65
2022/05/15 08:41:02;;;;;;;8.55;1.75;;;;;;;;;;4976429;28;20180;-67
2022/05/15 08:43:41;;;;;;;5.70;1.83;;;;;;;;;;4976341;28;20060;-66
2022/05/15 08:46:27;;;;;;;4.65;1.60;;;;;;;;;;4976150;28;20066;-68
2022/05/15 08:49:04;;;;;;;6.03;1.90;;;;;;;;;;4976175;28;20033;-69
2022/05/15 08:51:31;;;;;;;4.55;2.00;;;;;;;;;;4976204;28;20102;-68
2022/05/15 08:53:58;;;;;;;6.10;1.98;;;;;;;;;;4975987;28;20027;-67
2022/05/15 08:56:24;;;;;;;6.15;1.90;;;;;;;;;;4976914;28;20022;-68
2022/05/15 08:58:52;;;;;;;4.13;1.70;;;;;;;;;;4995139;28;20026;-68
2022/05/15 09:01:21;;;;;;;6.20;1.83;;;;;;;;;;4994862;28;20483;-71
2022/05/15 09:03:48;;;;;;;8.18;2.08;;;;;;;;;;4995269;28;20065;-67
2022/05/15 09:06:22;;;;;;;7.93;3.45;;;;;;;;;;4994750;28;20110;-67
2022/05/15 09:09:06;;;;;;;6.00;1.83;;;;;;;;;;4995104;28;20026;-68
2022/05/15 09:11:36;;;;;;;5.45;2.05;;;;;;;;;;4995110;28;20074;-69
2022/05/15 09:14:26;;;;;;;5.53;1.75;;;;;;;;;;4995041;28;20030;-71
2022/05/15 09:17:04;;;;;;;4.57;1.65;;;;;;;;;;4995228;28;20018;-66
2022/05/15 09:19:29;;;;;;;4.65;1.70;;;;;;;;;;4993813;28;20093;-66
2022/05/15 09:21:57;;;;;;;6.78;1.83;;;;;;;;;;4994901;28;20029;-66
2022/05/15 09:24:37;;;;;;;5.57;1.77;;;;;;;;;;4994892;28;20476;-63
2022/05/15 09:27:36;;;;;;;5.10;1.83;;;;;;;;;;4994992;28;20030;-63
2022/05/15 09:30:10;;;;;;;7.27;2.00;;;;;;;;;;4973085;28;20508;-70
2022/05/15 09:32:43;;;;;;;3.92;1.52;;;;;;;;;;4973181;28;20268;-66
2022/05/15 09:35:26;;;;;;;3.95;1.73;;;;;;;;;;4973221;28;20082;-70
2022/05/15 09:43:40;;;;;;;6.15;1.83;;;;;;;;;;4973149;28;20169;-65
2022/05/15 09:46:15;;;;;;;4.25;1.80;;;;;;;;;;4972759;28;20080;-69
2022/05/15 09:49:03;;;;;;;6.93;2.08;;;;;;;;;;4972759;28;20031;-65
2022/05/15 09:51:35;;;;;;;3.30;1.40;;;;;;;;;;4972456;28;20089;-69
2022/05/15 09:54:01;;;;;;;3.88;1.83;;;;;;;;;;4972688;28;20089;-66
2022/05/15 09:56:30;;;;;;;4.40;1.60;;;;;;;;;;4972404;28;20118;-69
2022/05/15 09:59:08;;;;;;;5.40;2.08;;;;;;;;;;4971607;28;20035;-69
2022/05/15 10:02:09;;;;;;;5.47;2.00;;;;;;;;;;4972563;28;20038;-62
2022/05/15 10:04:39;;;;;;;5.50;2.10;;;;;;;;;;4961909;28;20125;-68
2022/05/15 10:07:07;;;;;;;5.55;1.90;;;;;;;;;;5003806;28;20453;-68
2022/05/15 10:09:35;;;;;;;4.35;1.63;;;;;;;;;;5013501;28;20119;-69
2022/05/15 10:12:06;;;;;;;3.90;1.40;;;;;;;;;;5013368;28;20030;-63
2022/05/15 10:14:34;;;;;;;5.55;1.67;;;;;;;;;;5013541;28;20022;-61
2022/05/15 10:17:01;;;;;;;4.72;1.73;;;;;;;;;;5013566;28;20040;-66
2022/05/15 10:19:43;;;;;;;5.13;1.60;;;;;;;;;;5013375;28;20105;-68
2022/05/15 10:22:49;;;;;;;4.80;1.60;;;;;;;;;;5013334;28;20026;-63
2022/05/15 10:25:21;;;;;;;2.38;1.33;;;;;;;;;;5013278;28;20029;-63
2022/05/15 10:27:58;;;;;;;5.72;1.77;;;;;;;;;;5013134;28;20482;-66
2022/05/15 10:30:31;;;;;;;3.67;1.52;;;;;;;;;;5013528;28;20030;-70
2022/05/15 10:33:15;;;;;;;6.07;2.05;;;;;;;;;;5008850;28;20022;-67
2022/05/15 10:35:40;;;;;;;5.63;1.50;;;;;;;;;;4993285;28;20026;-64
2022/05/15 10:38:12;;;;;;;4.05;1.70;;;;;;;;;;4993411;28;20027;-64
2022/05/15 10:41:05;;;;;;;4.95;1.88;;;;;;;;;;4993344;28;20110;-62
2022/05/15 10:43:34;;;;;;;6.57;1.75;;;;;;;;;;4993261;28;20124;-63
2022/05/15 10:46:19;;;;;;;8.77;2.25;;;;;;;;;;4993017;28;20038;-63
2022/05/15 10:49:09;;;;;;;6.85;2.10;;;;;;;;;;4993236;28;20033;-66
2022/05/15 10:51:43;;;;;;;6.47;1.80;;;;;;;;;;4993247;28;20054;-62
2022/05/15 10:57:42;;;;;;;6.15;1.98;;;;;;;;;;4993324;28;20046;-71
2022/05/15 11:00:14;;;;;;;10.85;2.40;;;;;;;;;;4993066;28;20503;-69
2022/05/15 11:03:24;;;;;;;2.72;1.30;;;;;;;;;;4993245;28;20483;-70
2022/05/15 11:06:08;;;;;;;4.90;1.95;;;;;;;;;;4992920;28;20034;-64
2022/05/15 11:08:55;;;;;;;5.07;2.00;;;;;;;;;;4993075;28;20031;-66
2022/05/15 11:11:27;;;;;;;6.50;1.80;;;;;;;;;;4993084;28;20057;-63
2022/05/15 11:14:15;;;;;;;6.28;1.98;;;;;;;;;;4993076;28;20034;-69
2022/05/15 11:16:46;;;;;;;4.70;1.67;;;;;;;;;;4992950;28;20023;-69
2022/05/15 11:19:21;;;;;;;3.50;1.60;;;;;;;;;;4992782;28;20471;-67
2022/05/15 11:21:51;;;;;;;6.00;1.70;;;;;;;;;;4992941;28;20081;-66
2022/05/15 11:24:38;;;;;;;4.65;1.80;;;;;;;;;;4992536;28;20110;-62
2022/05/15 11:27:15;;;;;;;3.95;1.85;;;;;;;;;;4992845;28;20136;-65
2022/05/15 11:29:46;;;;;;;3.83;1.52;;;;;;;;;;4992965;28;20037;-65
2022/05/15 11:32:38;;;;;;;4.43;1.58;;;;;;;;;;4992440;28;20022;-68
2022/05/15 11:35:18;;;;;;;5.32;1.88;;;;;;;;;;4989035;28;20103;-65
2022/05/15 11:37:59;;;;;;;4.07;1.77;;;;;;;;;;4992540;28;20117;-66
2022/05/15 11:40:48;;;;;;;6.13;1.98;;;;;;;;;;4994436;28;20030;-68
2022/05/15 11:43:26;;;;;;;3.30;1.55;;;;;;;;;;4982725;28;20372;-70
2022/05/15 11:45:53;;;;;;;3.55;1.65;;;;;;;;;;4996234;28;20030;-67
2022/05/15 11:48:37;;;;;;;8.88;1.40;;;;;;;;;;4996075;28;20037;-69
2022/05/15 11:51:14;;;;;;;4.18;1.50;;;;;;;;;;4981017;28;20386;-70
2022/05/15 11:53:57;;;;;;;5.03;1.73;;;;;;;;;;4996232;28;20581;-67
2022/05/15 11:56:24;;;;;;;4.50;1.75;;;;;;;;;;4991859;28;20022;-61
2022/05/15 11:58:59;;;;;;;5.07;1.55;;;;;;;;;;4995946;28;20105;-64
2022/05/15 12:01:25;;;;;;;4.05;1.40;;;;;;;;;;4995886;28;20054;-61
2022/05/15 12:03:59;;;;;;;4.18;1.40;;;;;;;;;;4995922;28;20508;-69
2022/05/15 12:06:46;;;;;;;3.22;1.42;;;;;;;;;;4995408;28;20086;-69
2022/05/15 12:09:17;;;;;;;6.22;1.67;;;;;;;;;;4981962;28;20382;-62
2022/05/15 12:11:45;;;;;;;128.73;18.55;;;;;;;;;;4989830;28;20053;-66
2022/05/15 12:14:22;;;;;;;91.28;14.90;;;;;;;;;;4986668;28;20033;-67
2022/05/15 12:17:26;;;;;;;35.90;6.63;;;;;;;;;;4988038;28;20025;-67
2022/05/15 12:20:09;;;;;;;6.15;1.55;;;;;;;;;;4984063;28;20050;-68
2022/05/15 12:22:37;;;;;;;5.80;1.45;;;;;;;;;;4993250;28;20015;-66
2022/05/15 12:25:15;;;;;;;23.48;4.70;;;;;;;;;;4990130;28;20038;-65
2022/05/15 12:30:47;;;;;;;7.10;2.20;;;;;;;;;;4975030;28;20137;-69
2022/05/15 12:33:12;;;;;;;16.98;3.72;;;;;;;;;;4975670;28;20102;-66
2022/05/15 12:35:42;;;;;;;14.18;3.25;;;;;;;;;;4975832;28;20033;-66
2022/05/15 12:38:15;;;;;;;13.27;3.38;;;;;;;;;;4975385;28;20059;-66
2022/05/15 12:41:03;;;;;;;11.20;2.17;;;;;;;;;;4976330;28;20030;-69
2022/05/15 12:43:30;;;;;;;8.05;2.42;;;;;;;;;;4975705;28;20035;-69
2022/05/15 12:45:56;;;;;;;7.45;1.50;;;;;;;;;;4974728;28;20046;-67
2022/05/15 12:48:22;;;;;;;7.35;1.63;;;;;;;;;;4975787;28;20469;-70
2022/05/15 12:50:51;;;;;;;7.45;2.05;;;;;;;;;;4975433;28;20070;-66
2022/05/15 12:53:26;;;;;;;5.57;1.45;;;;;;;;;;4975828;28;20109;-69
2022/05/15 12:55:51;;;;;;;6.95;2.05;;;;;;;;;;4976234;28;20174;-69
2022/05/15 12:58:30;;;;;;;5.32;1.67;;;;;;;;;;4976057;28;20197;-70
2022/05/15 13:00:55;;;;;;;4.95;1.40;;;;;;;;;;4975731;28;20019;-64
2022/05/15 13:03:22;;;;;;;3.55;1.35;;;;;;;;;;4975768;28;20053;-70
2022/05/15 13:05:47;;;;;;;5.68;1.73;;;;;;;;;;4975948;28;20078;-70
2022/05/15 13:08:13;;;;;;;2.78;1.20;;;;;;;;;;4995096;28;20033;-65
2022/05/15 13:10:50;;;;;;;6.70;1.77;;;;;;;;;;4995436;28;20022;-70
2022/05/15 13:13:29;;;;;;;3.55;1.40;;;;;;;;;;4995432;28;20023;-68
2022/05/15 13:15:57;;;;;;;4.83;1.50;;;;;;;;;;4995076;28;20109;-62
2022/05/15 13:18:25;;;;;;;4.28;1.33;;;;;;;;;;4995205;28;20088;-67
2022/05/15 13:21:10;;;;;;;3.13;1.33;;;;;;;;;;4995110;28;20037;-70
2022/05/15 13:23:43;;;;;;;4.90;1.40;;;;;;;;;;4995062;28;20106;-69
2022/05/15 13:26:16;;;;;;;4.53;1.52;;;;;;;;;;4995041;28;20031;-71
2022/05/15 13:28:41;;;;;;;6.15;1.60;;;;;;;;;;4994909;28;20025;-67
2022/05/15 13:31:11;;;;;;;4.50;1.40;;;;;;;;;;4994886;28;20196;-70
2022/05/15 13:33:37;;;;;;;4.97;1.40;;;;;;;;;;4994883;28;20031;-68
2022/05/15 13:36:03;;;;;;;2.72;1.30;;;;;;;;;;4995046;28;20044;-68
2022/05/15 13:44:08;;;;;;;4.53;1.50;;;;;;;;;;4994907;28;20073;-69
2022/05/15 13:46:38;;;;;;;3.92;1.45;;;;;;;;;;4994702;28;20030;-66
2022/05/15 13:49:11;;;;;;;6.20;1.80;;;;;;;;;;4994666;28;20421;-66
2022/05/15 13:51:48;;;;;;;4.63;1.40;;;;;;;;;;4994568;28;20026;-70
2022/05/15 13:54:16;;;;;;;5.90;1.55;;;;;;;;;;4994706;28;20085;-62
2022/05/15 13:57:00;;;;;;;6.85;1.63;;;;;;;;;;4994706;28;20085;-70
2022/05/15 13:59:41;;;;;;;6.53;1.38;;;;;;;;;;4994326;28;20035;-71
2022/05/15 14:02:17;;;;;;;3.55;1.30;;;;;;;;;;4994013;28;20030;-71
2022/05/15 14:04:48;;;;;;;4.50;1.40;;;;;;;;;;4994475;28;20380;-66
2022/05/15 14:07:34;;;;;;;6.55;1.58;;;;;;;;;;4994056;28;20137;-70
2022/05/15 14:10:22;;;;;;;5.30;1.50;;;;;;;;;;4993996;28;20484;-70
2022/05/15 14:12:53;;;;;;;10.20;1.65;;;;;;;;;;4994076;28;20034;-63
2022/05/15 14:15:38;;;;;;;3.63;1.20;;;;;;;;;;4994261;28;20022;-63
2022/05/15 14:18:08;;;;;;;6.30;3.00;;;;;;;;;;4991315;28;20046;-64
2022/05/15 14:20:43;;;;;;;3.65;1.42;;;;;;;;;;4993560;28;20018;-65
2022/05/15 14:23:10;;;;;;;5.93;1.33;;;;;;;;;;4993728;28;20034;-63
2022/05/15 14:25:37;;;;;;;6.75;1.40;;;;;;;;;;4993549;28;20026;-66
2022/05/15 14:28:04;;;;;;;4.93;1.63;;;;;;;;;;4993454;28;20045;-64
2022/05/15 14:30:30;;;;;;;4.63;1.38;;;;;;;;;;4992399;28;20080;-70
2022/05/15 14:33:01;;;;;;;8.70;1.73;;;;;;;;;;4993756;28;20031;-72
2022/05/15 14:35:35;;;;;;;3.67;1.30;;;;;;;;;;4990289;28;20122;-64
2022/05/15 14:38:00;;;;;;;3.20;1.48;;;;;;;;;;4980915;28;20035;-64
2022/05/15 14:40:26;;;;;;;6.00;1.58;;;;;;;;;;4984203;28;20031;-69
2022/05/15 14:42:52;;;;;;;4.32;1.30;;;;;;;;;;4982707;28;20097;-64
2022/05/15 14:45:17;;;;;;;8.38;1.80;;;;;;;;;;4984111;28;20026;-71
2022/05/15 14:47:51;;;;;;;5.95;1.83;;;;;;;;;;4987118;28;20030;-74
2022/05/15 14:50:17;;;;;;;7.57;1.90;;;;;;;;;;4993597;28;20093;-74
2022/05/15 14:52:47;;;;;;;7.00;1.80;;;;;;;;;;4994016;28;20030;-64
2022/05/15 14:56:07;;;;;;;5.82;1.90;;;;;;;;;;4987101;28;20476;-67
2022/05/15 14:57:59;;;;;;;7.32;2.13;;;;;;;;;;4986417;28;20121;-66
2022/05/15 15:00:28;;;;;;;7.28;2.20;;;;;;;;;;4984416;28;20046;-68
2022/05/15 15:02:54;;;;;;;6.10;1.92;;;;;;;;;;4985033;28;20391;-67
2022/05/15 15:05:20;;;;;;;5.80;1.50;;;;;;;;;;4986310;28;20019;-66
2022/05/15 15:07:45;;;;;;;5.15;2.03;;;;;;;;;;4988223;28;20038;-68
2022/05/15 15:10:11;;;;;;;6.43;1.63;;;;;;;;;;4984968;28;20484;-67
2022/05/15 15:12:36;;;;;;;8.68;2.22;;;;;;;;;;4985752;28;20031;-68
2022/05/15 15:15:02;;;;;;;7.18;1.95;;;;;;;;;;4992181;28;20476;-68
2022/05/15 15:17:28;;;;;;;12.02;2.10;;;;;;;;;;4992866;28;20109;-66
2022/05/15 15:19:53;;;;;;;6.25;2.20;;;;;;;;;;4992976;28;20113;-69
2022/05/15 15:22:19;;;;;;;8.02;1.90;;;;;;;;;;4993058;28;20091;-67
2022/05/15 15:24:44;;;;;;;11.90;1.85;;;;;;;;;;4992629;28;20448;-67
2022/05/15 15:27:10;;;;;;;8.57;2.20;;;;;;;;;;4976631;28;20043;-68